Time;durP1;ratioP1;P1;durP2;ratioP2;P2;SDS_P1;SDS_P2;PMS_P1;PMS_P2;Temp;Humidity;BMP_temperature;BMP_pressure;BME280_temperature;BME280_humidity;BME280_pressure;Samples;Min_cycle;Max_cycle;Signal;HPM_P1;HPM_P2
2022/05/13 00:01:35;;;;;;;5.25;2.17;;;12.30;99.00;;;;;;4972540;28;20487;-87
2022/05/13 00:04:01;;;;;;;6.47;2.33;;;12.30;99.10;;;;;;4969224;29;20120;-93
2022/05/13 00:06:27;;;;;;;3.83;2.10;;;12.40;99.30;;;;;;4980679;28;20046;-88
2022/05/13 00:08:56;;;;;;;6.07;2.10;;;12.30;99.30;;;;;;5013171;28;20039;-89
2022/05/13 00:11:21;;;;;;;6.15;2.10;;;12.40;99.50;;;;;;4980422;29;20047;-87
2022/05/13 00:13:47;;;;;;;9.43;2.70;;;12.30;99.50;;;;;;4987543;28;20102;-86
2022/05/13 00:16:13;;;;;;;7.22;2.40;;;12.40;99.70;;;;;;4986185;28;20071;-89
2022/05/13 00:18:39;;;;;;;10.25;2.70;;;12.40;99.70;;;;;;4995606;28;20055;-86
2022/05/13 00:21:04;;;;;;;10.82;2.08;;;12.40;99.70;;;;;;4987991;28;20130;-87
2022/05/13 00:23:30;;;;;;;5.82;2.17;;;12.40;99.70;;;;;;4971657;28;20054;-87
2022/05/13 00:25:55;;;;;;;7.95;2.53;;;12.40;99.70;;;;;;4956174;29;20383;-87
2022/05/13 00:28:21;;;;;;;9.23;2.35;;;12.40;99.80;;;;;;4971778;28;20050;-87
2022/05/13 00:30:50;;;;;;;7.78;2.33;;;12.40;99.80;;;;;;4971687;28;20047;-87
2022/05/13 00:33:16;;;;;;;10.75;2.35;;;12.50;99.90;;;;;;4971084;28;20098;-87
2022/05/13 00:35:42;;;;;;;6.05;2.15;;;12.40;99.80;;;;;;4939355;29;20059;-86
2022/05/13 00:38:08;;;;;;;5.75;2.30;;;12.40;99.80;;;;;;4987549;28;20078;-86
2022/05/13 00:40:33;;;;;;;6.05;2.17;;;12.50;99.70;;;;;;4971760;28;20043;-87
2022/05/13 00:43:01;;;;;;;7.47;2.20;;;12.40;99.60;;;;;;4971875;28;20182;-86
2022/05/13 00:45:27;;;;;;;5.80;2.05;;;12.40;99.70;;;;;;4955010;29;20094;-87
2022/05/13 00:47:53;;;;;;;8.32;2.50;;;12.40;99.70;;;;;;4971265;28;20051;-87
2022/05/13 00:50:19;;;;;;;4.75;2.13;;;12.40;99.80;;;;;;4955437;29;20054;-87
2022/05/13 00:52:46;;;;;;;8.00;2.40;;;12.40;99.80;;;;;;4971835;28;20452;-87
2022/05/13 00:55:14;;;;;;;6.93;2.53;;;12.40;99.90;;;;;;4955690;29;20105;-87
2022/05/13 00:57:40;;;;;;;5.97;2.72;;;12.40;99.90;;;;;;4955706;28;20059;-87
2022/05/13 01:00:11;;;;;;;7.97;2.38;;;12.40;99.90;;;;;;4955449;29;20546;-87
2022/05/13 01:02:37;;;;;;;7.88;2.63;;;12.40;99.90;;;;;;4956034;29;20058;-87
2022/05/13 01:05:06;;;;;;;7.88;2.42;;;12.40;99.90;;;;;;4988170;28;20047;-87
2022/05/13 01:07:32;;;;;;;6.47;2.35;;;12.40;99.90;;;;;;4971237;28;20083;-87
2022/05/13 01:09:59;;;;;;;10.80;3.03;;;12.40;99.90;;;;;;4954924;29;20420;-87
2022/05/13 01:12:29;;;;;;;6.80;2.28;;;12.40;99.90;;;;;;4970751;28;20098;-87
2022/05/13 01:15:19;;;;;;;8.20;2.22;;;12.40;99.90;;;;;;4970894;28;20102;-87
2022/05/13 01:20:30;;;;;;;8.32;2.67;;;12.40;99.90;;;;;;4955187;29;20051;-86
2022/05/13 01:23:09;;;;;;;7.32;2.28;;;12.40;99.90;;;;;;4971102;28;20051;-87
2022/05/13 01:25:37;;;;;;;5.93;2.03;;;12.40;99.90;;;;;;4939216;29;20082;-87
2022/05/13 01:28:09;;;;;;;8.40;2.40;;;12.40;99.90;;;;;;4970789;28;20106;-87
2022/05/13 01:30:39;;;;;;;9.60;2.38;;;12.40;99.90;;;;;;4938789;29;20511;-88
2022/05/13 01:33:04;;;;;;;8.43;2.65;;;12.40;99.90;;;;;;4970984;28;20055;-87
2022/05/13 01:35:30;;;;;;;9.40;2.47;;;12.40;99.90;;;;;;4954622;28;20051;-87
2022/05/13 01:37:56;;;;;;;6.57;2.47;;;12.40;99.90;;;;;;4955681;29;20058;-87
2022/05/13 01:40:21;;;;;;;7.47;2.60;;;12.40;99.90;;;;;;4971672;28;20055;-87
2022/05/13 01:42:47;;;;;;;13.02;2.58;;;12.40;99.90;;;;;;4954827;29;20059;-87
2022/05/13 01:45:13;;;;;;;7.50;2.42;;;12.40;99.90;;;;;;4954831;29;20413;-88
2022/05/13 01:47:38;;;;;;;11.18;2.70;;;12.40;99.90;;;;;;4955836;28;20364;-86
2022/05/13 01:50:05;;;;;;;8.43;2.20;;;12.40;99.90;;;;;;4973878;28;20051;-87
2022/05/13 01:52:31;;;;;;;8.77;2.83;;;12.40;99.90;;;;;;4958516;28;20051;-87
2022/05/13 01:54:56;;;;;;;7.57;2.13;;;12.40;99.90;;;;;;4977317;28;20479;-87
2022/05/13 01:57:22;;;;;;;11.73;2.88;;;12.40;99.90;;;;;;4983187;28;20054;-91
2022/05/13 01:59:47;;;;;;;8.80;2.55;;;12.40;99.90;;;;;;4983887;28;20028;-88
2022/05/13 02:02:13;;;;;;;10.10;2.65;;;12.40;99.90;;;;;;4983693;28;20051;-88
2022/05/13 02:04:39;;;;;;;7.82;2.47;;;12.40;99.90;;;;;;5010013;28;20105;-87
2022/05/13 02:07:04;;;;;;;6.50;2.67;;;12.40;99.90;;;;;;4976590;28;20094;-87
2022/05/13 02:09:30;;;;;;;7.32;2.45;;;12.40;99.90;;;;;;4974077;28;20043;-87
2022/05/13 02:11:56;;;;;;;8.52;2.65;;;12.30;99.90;;;;;;4981483;28;20043;-87
2022/05/13 02:14:21;;;;;;;7.15;2.50;;;12.40;99.90;;;;;;4959684;29;20055;-87
2022/05/13 02:16:47;;;;;;;9.20;2.97;;;12.30;99.90;;;;;;4960263;29;20186;-88
2022/05/13 02:19:13;;;;;;;9.57;2.78;;;12.30;99.90;;;;;;4974195;28;20046;-87
2022/05/13 02:21:39;;;;;;;11.18;2.83;;;12.30;99.90;;;;;;4941742;29;20051;-88
2022/05/13 02:24:05;;;;;;;8.20;2.95;;;12.30;99.90;;;;;;4973811;28;20043;-88
2022/05/13 02:26:31;;;;;;;8.90;2.85;;;12.30;99.90;;;;;;4973981;28;20051;-87
2022/05/13 02:29:01;;;;;;;9.00;2.72;;;12.30;99.90;;;;;;4958844;28;20054;-87
2022/05/13 02:31:30;;;;;;;10.32;2.58;;;12.40;99.90;;;;;;4958760;29;20066;-87
2022/05/13 02:33:59;;;;;;;8.55;2.55;;;12.40;99.90;;;;;;4973218;28;20047;-87
2022/05/13 02:36:25;;;;;;;10.02;2.78;;;12.30;99.90;;;;;;4973890;28;20047;-87
2022/05/13 02:38:51;;;;;;;10.70;2.53;;;12.30;99.90;;;;;;4957655;28;20133;-87
2022/05/13 02:41:17;;;;;;;10.73;3.00;;;12.30;99.90;;;;;;4973952;28;20078;-87
2022/05/13 02:43:49;;;;;;;10.70;2.90;;;12.30;99.90;;;;;;4989718;28;20047;-88
2022/05/13 02:46:20;;;;;;;15.20;3.30;;;12.30;99.90;;;;;;4958092;29;20055;-87
2022/05/13 02:48:45;;;;;;;;;;;12.30;99.90;;;;;;4959075;29;20063;-88
2022/05/13 02:51:11;;;;;;;11.32;3.00;;;12.20;99.90;;;;;;4957444;29;19922;-87
2022/05/13 02:53:37;;;;;;;9.40;2.50;;;12.20;99.90;;;;;;4990890;28;20047;-88
2022/05/13 02:56:03;;;;;;;8.57;3.03;;;12.30;99.90;;;;;;4974288;28;20403;-88
2022/05/13 02:58:28;;;;;;;12.27;3.13;;;12.30;99.90;;;;;;4959607;28;20051;-87
2022/05/13 03:00:55;;;;;;;9.43;2.85;;;12.30;99.90;;;;;;4958579;28;20499;-87
2022/05/13 03:03:20;;;;;;;10.23;2.97;;;12.40;99.90;;;;;;4973864;28;20061;-87
2022/05/13 03:05:46;;;;;;;8.35;2.50;;;12.30;99.90;;;;;;4958308;29;20130;-87
2022/05/13 03:08:13;;;;;;;9.38;2.65;;;12.30;99.90;;;;;;4974501;28;20098;-87
2022/05/13 03:10:39;;;;;;;11.68;3.20;;;12.20;99.90;;;;;;4958448;28;20051;-87
2022/05/13 03:13:05;;;;;;;9.23;3.00;;;12.30;99.90;;;;;;4957343;29;20047;-88
2022/05/13 03:15:31;;;;;;;13.63;3.15;;;12.30;99.90;;;;;;4973075;28;20094;-87
2022/05/13 03:17:57;;;;;;;9.40;3.05;;;12.30;99.90;;;;;;4957116;29;20055;-87
2022/05/13 03:20:23;;;;;;;11.18;3.22;;;12.30;99.90;;;;;;4957161;28;20130;-87
2022/05/13 03:22:48;;;;;;;13.15;3.42;;;12.30;99.90;;;;;;4973426;28;20460;-87
2022/05/13 03:25:14;;;;;;;12.05;3.40;;;12.30;99.90;;;;;;4957722;29;20471;-87
2022/05/13 03:27:40;;;;;;;8.07;3.00;;;12.30;99.90;;;;;;4973018;28;20391;-87
2022/05/13 03:30:07;;;;;;;15.10;3.78;;;12.30;99.90;;;;;;4972735;28;20047;-87
2022/05/13 03:32:32;;;;;;;9.77;3.70;;;12.30;99.90;;;;;;4957145;28;20055;-88
2022/05/13 03:34:58;;;;;;;12.10;3.20;;;12.30;99.90;;;;;;4989265;28;20434;-86
2022/05/13 03:37:23;;;;;;;10.90;3.90;;;12.20;99.90;;;;;;4958650;28;20051;-87
2022/05/13 03:39:49;;;;;;;13.05;3.50;;;12.30;99.90;;;;;;4995511;28;20526;-87
2022/05/13 03:42:15;;;;;;;13.65;3.42;;;12.30;99.90;;;;;;4957176;29;20399;-87
2022/05/13 03:44:42;;;;;;;12.85;3.50;;;12.30;99.90;;;;;;4978536;28;20058;-89
2022/05/13 03:47:07;;;;;;;15.25;3.50;;;12.30;99.90;;;;;;5013754;28;20043;-88
2022/05/13 03:49:33;;;;;;;14.75;3.95;;;12.30;99.90;;;;;;4981480;28;20038;-92
2022/05/13 03:51:59;;;;;;;11.55;3.80;;;12.30;99.90;;;;;;4992994;28;20051;-88
2022/05/13 03:54:24;;;;;;;16.45;3.75;;;12.30;99.90;;;;;;4975263;28;20047;-87
2022/05/13 03:56:50;;;;;;;17.70;3.55;;;12.30;99.90;;;;;;4986326;28;20052;-89
2022/05/13 03:59:16;;;;;;;14.40;4.45;;;12.30;99.90;;;;;;4960821;28;20126;-88
2022/05/13 04:01:41;;;;;;;15.55;3.60;;;12.40;99.90;;;;;;4957860;28;20083;-87
2022/05/13 04:04:07;;;;;;;12.77;4.15;;;12.40;99.90;;;;;;4972313;28;20039;-87
2022/05/13 04:09:17;;;;;;;14.55;3.80;;;12.40;99.90;;;;;;4957240;29;20139;-88
2022/05/13 04:16:04;;;;;;;15.02;4.82;;;12.40;99.90;;;;;;4987696;28;20131;-87
2022/05/13 04:17:12;;;;;;;18.70;4.30;;;12.50;99.90;;;;;;4989259;28;20153;-87
2022/05/13 04:19:38;;;;;;;19.85;4.63;;;12.40;99.90;;;;;;4988078;28;20496;-88
2022/05/13 04:22:04;;;;;;;21.48;4.53;;;12.50;99.90;;;;;;4972237;28;20102;-88
2022/05/13 04:24:29;;;;;;;18.20;4.15;;;12.50;99.90;;;;;;4956851;29;20046;-87
2022/05/13 04:26:55;;;;;;;15.55;4.10;;;12.50;99.90;;;;;;4955760;28;20391;-88
2022/05/13 04:29:20;;;;;;;15.73;4.43;;;12.50;99.90;;;;;;4955981;28;20054;-90
2022/05/13 04:31:46;;;;;;;15.07;3.85;;;12.50;99.90;;;;;;4957630;29;20055;-91
2022/05/13 04:34:12;;;;;;;13.70;3.88;;;12.50;99.90;;;;;;4955852;28;20043;-91
2022/05/13 04:36:38;;;;;;;15.82;3.85;;;12.50;99.90;;;;;;4971871;28;20138;-92
2022/05/13 04:39:03;;;;;;;17.35;4.30;;;12.60;99.90;;;;;;4955588;28;20086;-88
2022/05/13 04:44:14;;;;;;;12.15;4.00;;;12.60;99.90;;;;;;4988723;28;20051;-88
2022/05/13 04:46:40;;;;;;;15.75;3.20;;;12.60;99.90;;;;;;4955526;29;20102;-89
2022/05/13 04:49:05;;;;;;;16.75;3.50;;;12.60;99.90;;;;;;4972002;28;20090;-90
2022/05/13 04:51:31;;;;;;;13.52;3.78;;;12.60;99.90;;;;;;4939582;29;20051;-87
2022/05/13 04:53:57;;;;;;;17.75;4.00;;;12.70;99.90;;;;;;4957236;28;20050;-89
2022/05/13 04:56:23;;;;;;;13.75;4.00;;;12.70;99.90;;;;;;4975190;28;20364;-89
2022/05/13 04:58:49;;;;;;;14.38;3.88;;;12.60;99.90;;;;;;4990352;28;20047;-91
2022/05/13 05:01:15;;;;;;;17.15;4.10;;;12.70;99.90;;;;;;4973383;28;20061;-92
2022/05/13 05:03:40;;;;;;;13.80;3.80;;;12.70;99.90;;;;;;4988332;28;20051;-91
2022/05/13 05:06:06;;;;;;;16.67;3.83;;;12.70;99.90;;;;;;4956137;29;20039;-89
2022/05/13 05:08:32;;;;;;;15.05;3.50;;;12.70;99.90;;;;;;4955519;29;20051;-90
2022/05/13 05:10:58;;;;;;;17.38;3.50;;;12.80;99.90;;;;;;4955837;28;20363;-90
2022/05/13 05:13:37;;;;;;;15.00;3.90;;;12.80;99.90;;;;;;4954807;29;20106;-89
2022/05/13 05:16:05;;;;;;;14.50;3.83;;;12.90;99.90;;;;;;4970188;28;20090;-89
2022/05/13 05:18:31;;;;;;;14.10;4.13;;;12.90;99.90;;;;;;4971527;28;20055;-88
2022/05/13 05:20:57;;;;;;;15.98;3.85;;;12.90;99.90;;;;;;4955748;28;20472;-90
2022/05/13 05:23:25;;;;;;;13.35;3.75;;;13.00;99.90;;;;;;4969811;28;20050;-89
2022/05/13 05:25:51;;;;;;;12.65;3.67;;;13.00;99.90;;;;;;4971482;28;20051;-89
2022/05/13 05:28:16;;;;;;;14.23;4.22;;;13.10;99.90;;;;;;4958854;29;20043;-89
2022/05/13 05:30:43;;;;;;;12.38;3.83;;;13.20;99.90;;;;;;4979673;29;20045;-88
2022/05/13 05:33:08;;;;;;;11.27;3.30;;;13.30;99.90;;;;;;4979574;28;20067;-89
2022/05/13 05:35:34;;;;;;;13.98;4.22;;;13.40;99.90;;;;;;4994536;28;20059;-89
2022/05/13 05:38:00;;;;;;;12.75;3.42;;;13.40;99.90;;;;;;4970835;29;20055;-89
2022/05/13 05:40:26;;;;;;;13.30;3.05;;;13.40;99.90;;;;;;5004406;28;20059;-89
2022/05/13 05:42:51;;;;;;;16.38;3.63;;;13.50;99.90;;;;;;4974189;28;20395;-89
2022/05/13 05:45:18;;;;;;;11.95;2.72;;;13.50;99.90;;;;;;4955063;28;20040;-88
2022/05/13 05:47:44;;;;;;;10.73;2.67;;;13.50;99.90;;;;;;4955010;29;20061;-88
2022/05/13 05:50:12;;;;;;;10.68;2.80;;;13.50;99.90;;;;;;4954717;28;20459;-89
2022/05/13 05:52:38;;;;;;;12.07;2.90;;;13.60;99.90;;;;;;4938667;29;20055;-89
2022/05/13 05:58:06;;;;;;;11.18;2.72;;;13.60;99.90;;;;;;4987292;28;20047;-89
2022/05/13 06:00:33;;;;;;;10.75;3.10;;;13.70;99.90;;;;;;4969971;28;20067;-89
2022/05/13 06:02:58;;;;;;;12.02;2.75;;;13.70;99.90;;;;;;4938962;29;20121;-89
2022/05/13 06:05:24;;;;;;;8.40;2.38;;;13.80;99.90;;;;;;4938783;29;20055;-89
2022/05/13 06:07:50;;;;;;;9.10;2.55;;;13.80;99.80;;;;;;4971786;28;20051;-89
2022/05/13 06:10:16;;;;;;;10.45;2.80;;;13.90;99.50;;;;;;4971029;28;20072;-89
2022/05/13 06:12:42;;;;;;;7.50;2.10;;;13.90;99.10;;;;;;4938853;29;20085;-89
2022/05/13 06:15:09;;;;;;;7.88;2.40;;;13.90;98.90;;;;;;4954838;29;20051;-89
2022/05/13 06:17:34;;;;;;;10.43;2.42;;;13.90;98.80;;;;;;4954534;28;20058;-88
2022/05/13 06:20:06;;;;;;;8.77;2.00;;;13.90;98.50;;;;;;4955180;29;20047;-89
2022/05/13 06:22:32;;;;;;;10.88;2.40;;;14.00;98.40;;;;;;4971400;28;20087;-88
2022/05/13 06:24:58;;;;;;;9.68;2.65;;;14.10;98.20;;;;;;4954895;29;20522;-88
2022/05/13 06:27:24;;;;;;;10.07;2.30;;;14.10;97.80;;;;;;4955095;29;20044;-89
2022/05/13 06:29:51;;;;;;;9.55;2.10;;;14.20;97.70;;;;;;4986715;28;20047;-90
2022/05/13 06:32:17;;;;;;;12.75;2.42;;;14.20;97.70;;;;;;4954827;28;20079;-89
2022/05/13 06:34:43;;;;;;;11.85;2.35;;;14.30;97.50;;;;;;4971037;28;20051;-89
2022/05/13 06:37:08;;;;;;;7.20;2.25;;;14.30;97.10;;;;;;4974199;28;20059;-89
2022/05/13 06:39:34;;;;;;;7.93;2.10;;;14.40;96.80;;;;;;4957993;29;20395;-90
2022/05/13 06:42:00;;;;;;;8.25;1.73;;;14.40;96.30;;;;;;4957876;29;20043;-89
2022/05/13 06:44:25;;;;;;;6.10;1.90;;;14.40;96.00;;;;;;4958211;28;20134;-90
2022/05/13 06:46:51;;;;;;;8.95;2.35;;;14.40;95.60;;;;;;4958080;28;20155;-90
2022/05/13 06:49:16;;;;;;;8.23;2.05;;;14.50;95.50;;;;;;4974113;28;20402;-90
2022/05/13 06:51:42;;;;;;;7.20;1.83;;;14.50;95.40;;;;;;4974374;28;20375;-89
2022/05/13 06:54:09;;;;;;;7.07;1.98;;;14.60;95.40;;;;;;4989748;28;20043;-89
2022/05/13 06:56:36;;;;;;;6.65;1.85;;;14.60;95.40;;;;;;4957426;29;20051;-87
2022/05/13 06:59:03;;;;;;;9.23;2.20;;;14.70;95.20;;;;;;4957557;28;20388;-87
2022/05/13 07:01:29;;;;;;;7.82;2.00;;;14.70;94.80;;;;;;4957581;29;20048;-87
2022/05/13 07:03:54;;;;;;;8.88;1.90;;;14.70;94.60;;;;;;4959177;28;20384;-87
2022/05/13 07:06:21;;;;;;;9.32;1.80;;;14.70;94.80;;;;;;4957465;29;20158;-87
2022/05/13 07:08:47;;;;;;;12.80;2.20;;;14.80;94.60;;;;;;4957851;28;20455;-86
2022/05/13 07:11:13;;;;;;;10.43;1.90;;;14.80;94.50;;;;;;4958301;28;20084;-88
2022/05/13 07:13:39;;;;;;;6.88;1.88;;;14.80;94.60;;;;;;4981076;28;20058;-87
2022/05/13 07:16:05;;;;;;;5.70;1.60;;;14.80;94.70;;;;;;5013174;28;20049;-86
2022/05/13 07:18:31;;;;;;;6.68;2.08;;;14.90;94.10;;;;;;5013335;28;20038;-88
2022/05/13 07:20:56;;;;;;;6.75;1.70;;;14.80;93.90;;;;;;4979331;29;20383;-88
2022/05/13 07:23:22;;;;;;;9.80;2.03;;;14.90;94.10;;;;;;4988298;28;20043;-89
2022/05/13 07:25:48;;;;;;;6.82;1.83;;;14.90;93.90;;;;;;4980919;28;20126;-91
2022/05/13 07:28:13;;;;;;;9.10;1.80;;;14.90;93.60;;;;;;4991922;28;20055;-91
2022/05/13 07:30:39;;;;;;;8.45;1.85;;;15.00;93.30;;;;;;4962857;29;20379;-90
2022/05/13 07:33:05;;;;;;;8.75;2.10;;;15.00;93.40;;;;;;4989537;28;20055;-89
2022/05/13 07:35:30;;;;;;;6.15;1.90;;;15.00;93.40;;;;;;4940849;29;20055;-89
2022/05/13 07:37:56;;;;;;;8.38;2.03;;;14.90;93.10;;;;;;4958573;28;20134;-92
2022/05/13 07:43:06;;;;;;;8.38;2.10;;;14.80;93.50;;;;;;4958141;29;20043;-89
2022/05/13 07:45:32;;;;;;;7.20;1.52;;;14.80;93.40;;;;;;4972532;28;20102;-89
2022/05/13 07:47:58;;;;;;;6.25;1.52;;;14.80;93.60;;;;;;4958017;28;20134;-92
2022/05/13 07:50:24;;;;;;;6.38;1.60;;;15.00;93.40;;;;;;4989348;28;20071;-89
2022/05/13 07:52:51;;;;;;;10.65;2.20;;;15.10;93.00;;;;;;4956477;29;20118;-91
2022/05/13 07:55:17;;;;;;;8.30;1.98;;;15.20;92.60;;;;;;4989178;28;20373;-90
2022/05/13 07:57:43;;;;;;;8.75;1.80;;;15.30;92.30;;;;;;4957488;29;20053;-90
2022/05/13 08:00:25;;;;;;;8.48;1.55;;;15.40;92.10;;;;;;4973400;28;20106;-90
2022/05/13 08:03:02;;;;;;;5.43;1.60;;;15.50;91.70;;;;;;4957291;29;20126;-91
2022/05/13 08:05:30;;;;;;;5.72;1.60;;;15.50;91.50;;;;;;4972744;28;20069;-92
2022/05/13 08:08:08;;;;;;;5.85;1.40;;;15.50;91.40;;;;;;4956997;28;20134;-92
2022/05/13 08:10:34;;;;;;;6.55;1.60;;;15.60;90.30;;;;;;4957546;29;20051;-90
2022/05/13 08:13:00;;;;;;;7.97;1.60;;;15.50;90.60;;;;;;4957965;28;20047;-92
2022/05/13 08:15:25;;;;;;;5.75;1.55;;;15.60;90.30;;;;;;4989867;28;20082;-90
2022/05/13 08:17:51;;;;;;;4.65;1.35;;;15.60;90.10;;;;;;4973086;28;20488;-93
2022/05/13 08:20:16;;;;;;;8.85;1.55;;;15.50;89.90;;;;;;4957547;29;20047;-94
2022/05/13 08:22:42;;;;;;;7.97;1.58;;;15.50;90.00;;;;;;4973790;28;20400;-91
2022/05/13 08:25:08;;;;;;;5.97;1.55;;;15.40;89.90;;;;;;4988585;28;20542;-92
2022/05/13 08:27:34;;;;;;;5.53;1.50;;;15.40;90.50;;;;;;4956638;28;20055;-93
2022/05/13 08:30:01;;;;;;;6.60;1.70;;;15.30;90.70;;;;;;4957965;28;20129;-93
2022/05/13 08:32:28;;;;;;;7.40;1.50;;;15.30;90.90;;;;;;4956005;28;20055;-92
2022/05/13 08:34:54;;;;;;;9.45;1.60;;;15.40;90.70;;;;;;4972754;28;20055;-91
2022/05/13 08:37:19;;;;;;;9.43;1.80;;;15.40;90.60;;;;;;4972228;28;20059;-91
2022/05/13 08:39:45;;;;;;;6.43;1.67;;;15.30;90.70;;;;;;4955950;29;20050;-91
2022/05/13 08:42:22;;;;;;;8.75;1.42;;;15.30;91.30;;;;;;4988493;28;20046;-93
2022/05/13 08:44:49;;;;;;;11.23;1.65;;;15.40;91.10;;;;;;4939669;29;20058;-93
2022/05/13 08:47:24;;;;;;;6.10;1.60;;;15.50;90.70;;;;;;4988122;28;20410;-93
2022/05/13 08:49:53;;;;;;;8.65;1.52;;;15.50;90.30;;;;;;4957181;29;20070;-94
2022/05/13 08:55:13;;;;;;;6.35;1.83;;;15.30;90.50;;;;;;4957492;29;20151;-90
2022/05/13 08:57:40;;;;;;;5.32;1.90;;;15.30;91.10;;;;;;4971699;28;20051;-90
2022/05/13 09:00:08;;;;;;;7.32;1.63;;;15.50;91.20;;;;;;4955754;28;20454;-94
2022/05/13 09:02:39;;;;;;;5.53;2.38;;;15.60;90.50;;;;;;4973035;28;20051;-92
2022/05/13 09:05:19;;;;;;;9.52;1.73;;;15.70;89.60;;;;;;5010041;28;20051;-90
2022/05/13 09:07:45;;;;;;;5.95;1.55;;;15.80;89.10;;;;;;4976894;29;20047;-91
2022/05/13 09:10:10;;;;;;;6.43;1.30;;;15.90;88.50;;;;;;4967710;29;20046;-88
2022/05/13 09:12:47;;;;;;;2.80;1.10;;;16.00;87.60;;;;;;4964774;28;20046;-90
2022/05/13 09:15:13;;;;;;;5.10;1.60;;;16.20;85.10;;;;;;4965548;29;20051;-90
2022/05/13 09:18:02;;;;;;;5.13;1.40;;;16.30;84.70;;;;;;4975613;28;20475;-89
2022/05/13 09:20:27;;;;;;;9.63;1.40;;;16.30;83.10;;;;;;4987707;28;20440;-93
2022/05/13 09:22:58;;;;;;;5.10;1.45;;;16.30;83.40;;;;;;4939922;29;20090;-89
2022/05/13 09:25:36;;;;;;;9.43;1.38;;;16.30;84.10;;;;;;4954833;28;20372;-90
2022/05/13 09:28:11;;;;;;;7.15;1.65;;;16.40;84.20;;;;;;4955280;28;20138;-89
2022/05/13 09:30:38;;;;;;;8.60;1.42;;;16.40;84.10;;;;;;4955425;28;20051;-89
2022/05/13 09:33:30;;;;;;;4.85;1.42;;;16.50;83.10;;;;;;4956008;28;20055;-89
2022/05/13 09:36:00;;;;;;;5.63;1.40;;;16.50;82.60;;;;;;4954389;28;20055;-92
2022/05/13 09:38:31;;;;;;;7.82;1.70;;;16.50;82.30;;;;;;4939792;29;20051;-90
2022/05/13 09:40:58;;;;;;;;;;;16.50;82.50;;;;;;4988135;28;20408;-88
2022/05/13 09:43:41;;;;;;;8.48;1.55;;;16.40;80.90;;;;;;4971328;28;19922;-87
2022/05/13 09:46:12;;;;;;;9.98;2.08;;;16.50;83.20;;;;;;4954658;29;20050;-89
2022/05/13 09:48:39;;;;;;;7.53;1.70;;;16.50;82.80;;;;;;4987359;28;20106;-89
2022/05/13 09:51:30;;;;;;;7.25;1.80;;;16.50;82.90;;;;;;4955437;29;20106;-89
2022/05/13 09:54:16;;;;;;;3.65;1.55;;;16.60;82.20;;;;;;4986809;28;20093;-89
2022/05/13 09:56:46;;;;;;;6.60;1.70;;;16.60;82.10;;;;;;4988087;28;20063;-88
2022/05/13 09:59:25;;;;;;;5.78;1.50;;;16.70;82.90;;;;;;4955716;29;20090;-89
2022/05/13 10:01:51;;;;;;;5.90;1.63;;;16.80;83.20;;;;;;4955317;28;20043;-89
2022/05/13 10:04:25;;;;;;;6.55;1.42;;;16.90;83.10;;;;;;4971390;28;20130;-89
2022/05/13 10:07:03;;;;;;;3.92;1.15;;;17.10;81.50;;;;;;4970749;28;20499;-89
2022/05/13 10:15:34;;;;;;;3.70;1.80;;;17.00;78.90;;;;;;4989960;28;20078;-89
2022/05/13 10:18:14;;;;;;;6.40;1.45;;;16.90;79.00;;;;;;4959266;28;20070;-90
2022/05/13 10:20:41;;;;;;;5.90;1.38;;;16.80;78.00;;;;;;4959336;29;20070;-88
2022/05/13 10:23:22;;;;;;;3.17;1.30;;;16.80;79.10;;;;;;4942892;29;20276;-89
2022/05/13 10:25:58;;;;;;;6.28;1.48;;;16.80;78.40;;;;;;4959042;29;20047;-90
2022/05/13 10:28:32;;;;;;;6.20;1.45;;;16.90;78.80;;;;;;4958705;29;20062;-90
2022/05/13 10:31:00;;;;;;;4.18;1.35;;;17.00;79.00;;;;;;4958861;29;20055;-88
2022/05/13 10:33:36;;;;;;;6.32;1.40;;;17.20;78.30;;;;;;4958298;28;20047;-91
2022/05/13 10:36:08;;;;;;;6.45;1.65;;;17.40;78.10;;;;;;4957893;28;20062;-89
2022/05/13 10:38:59;;;;;;;4.30;1.67;;;17.60;77.50;;;;;;4959174;29;20121;-88
2022/05/13 10:41:31;;;;;;;6.53;1.95;;;17.80;75.80;;;;;;4943236;29;20111;-90
2022/05/13 10:44:06;;;;;;;4.70;1.50;;;17.90;75.40;;;;;;4942382;29;20051;-90
2022/05/13 10:46:54;;;;;;;6.95;1.60;;;17.90;75.20;;;;;;4958655;28;20055;-85
2022/05/13 10:49:20;;;;;;;4.20;1.20;;;17.90;74.20;;;;;;4971292;28;20057;-87
2022/05/13 10:52:18;;;;;;;5.93;1.48;;;17.80;74.30;;;;;;4947898;29;20115;-86
2022/05/13 10:54:53;;;;;;;8.05;1.50;;;17.70;72.40;;;;;;4947514;28;20111;-84
2022/05/13 10:57:55;;;;;;;4.63;1.33;;;17.50;74.50;;;;;;4998321;28;20028;-86
2022/05/13 11:00:43;;;;;;;3.78;1.33;;;17.40;73.90;;;;;;4979110;29;20139;-87
2022/05/13 11:03:28;;;;;;;6.25;1.58;;;17.20;74.50;;;;;;4974402;29;20107;-87
2022/05/13 11:06:09;;;;;;;6.07;1.60;;;17.20;76.30;;;;;;4970140;28;20058;-87
2022/05/13 11:09:12;;;;;;;7.63;1.95;;;17.30;76.40;;;;;;4976209;28;20183;-86
2022/05/13 11:11:44;;;;;;;6.55;1.58;;;17.30;75.60;;;;;;4957488;29;20111;-87
2022/05/13 11:14:13;;;;;;;9.82;1.80;;;17.20;75.50;;;;;;4973598;28;20468;-87
2022/05/13 11:16:57;;;;;;;7.25;1.70;;;17.10;75.30;;;;;;4958337;29;20496;-88
2022/05/13 11:19:40;;;;;;;7.82;1.92;;;17.20;76.20;;;;;;4958120;29;20051;-87
2022/05/13 11:22:28;;;;;;;5.97;1.60;;;17.20;75.20;;;;;;4957059;28;20130;-87
2022/05/13 11:28:32;;;;;;;8.13;1.63;;;17.40;74.50;;;;;;4990707;28;20047;-87
2022/05/13 11:31:08;;;;;;;4.47;1.83;;;17.60;74.00;;;;;;4958082;29;20051;-87
2022/05/13 11:33:48;;;;;;;6.63;1.83;;;17.70;73.10;;;;;;4957675;29;20475;-87
2022/05/13 11:36:16;;;;;;;4.93;1.33;;;17.80;72.60;;;;;;4972643;28;20532;-87
2022/05/13 11:38:52;;;;;;;6.40;1.73;;;17.80;72.00;;;;;;4956697;29;20551;-88
2022/05/13 11:41:21;;;;;;;7.93;1.63;;;17.90;70.60;;;;;;4957809;29;20043;-87
2022/05/13 11:44:04;;;;;;;5.80;1.48;;;18.00;70.90;;;;;;4972854;28;20058;-87
2022/05/13 11:46:33;;;;;;;4.70;1.48;;;18.10;70.70;;;;;;4973335;28;20110;-87
2022/05/13 11:49:21;;;;;;;4.18;1.38;;;18.20;70.50;;;;;;4956553;29;20055;-88
2022/05/13 11:51:47;;;;;;;7.63;1.95;;;18.20;69.70;;;;;;4973716;28;20057;-87
2022/05/13 11:54:33;;;;;;;6.28;1.80;;;18.20;70.10;;;;;;4972974;28;20138;-88
2022/05/13 11:57:18;;;;;;;9.02;1.95;;;18.20;70.30;;;;;;4956548;29;20036;-87
2022/05/13 11:59:47;;;;;;;7.20;2.00;;;18.20;72.00;;;;;;4988953;28;20047;-86
2022/05/13 12:02:49;;;;;;;10.13;2.15;;;18.20;72.30;;;;;;4956083;29;20499;-87
2022/05/13 12:05:18;;;;;;;8.65;2.05;;;18.40;72.00;;;;;;4948727;28;20097;-87
2022/05/13 12:08:02;;;;;;;8.85;1.70;;;18.40;71.20;;;;;;4957410;28;20051;-87
2022/05/13 12:11:04;;;;;;;4.72;1.42;;;18.50;68.90;;;;;;4972744;28;20051;-88
2022/05/13 12:13:30;;;;;;;4.93;1.42;;;18.60;69.00;;;;;;4957183;29;20047;-87
2022/05/13 12:16:17;;;;;;;5.35;1.83;;;18.60;68.60;;;;;;4988473;28;20102;-86
2022/05/13 12:18:58;;;;;;;9.52;1.50;;;18.70;67.80;;;;;;4970116;28;20055;-88
2022/05/13 12:21:40;;;;;;;6.90;1.73;;;18.70;67.90;;;;;;4955543;29;20077;-87
2022/05/13 12:24:20;;;;;;;7.85;1.75;;;18.60;67.40;;;;;;4971315;28;20379;-85
2022/05/13 12:26:51;;;;;;;11.13;2.05;;;18.50;66.70;;;;;;4972100;28;20055;-86
2022/05/13 12:29:24;;;;;;;4.50;1.42;;;18.40;67.00;;;;;;4973085;28;20047;-86
2022/05/13 12:31:53;;;;;;;4.20;1.40;;;18.30;66.30;;;;;;4955983;28;20134;-86
2022/05/13 12:37:36;;;;;;;6.97;1.67;;;18.20;66.60;;;;;;4987715;28;20059;-86
2022/05/13 12:40:03;;;;;;;6.68;1.90;;;18.10;67.40;;;;;;4956234;29;20510;-86
2022/05/13 12:42:52;;;;;;;5.97;1.60;;;18.20;67.80;;;;;;4955850;29;20058;-86
2022/05/13 12:45:21;;;;;;;7.93;1.57;;;18.20;66.90;;;;;;4956606;29;20585;-86
2022/05/13 12:48:06;;;;;;;4.90;1.80;;;18.10;67.40;;;;;;4973137;28;20054;-87
2022/05/13 12:51:10;;;;;;;6.15;1.60;;;17.90;66.60;;;;;;4995580;28;20027;-87
2022/05/13 12:53:45;;;;;;;11.23;2.13;;;17.80;67.50;;;;;;4980246;28;20031;-86
2022/05/13 12:56:20;;;;;;;7.68;1.63;;;17.70;68.70;;;;;;4980266;28;20034;-86
2022/05/13 12:58:50;;;;;;;5.18;1.65;;;17.70;69.10;;;;;;4972691;29;20043;-86
2022/05/13 13:01:18;;;;;;;6.07;1.90;;;17.70;68.80;;;;;;4970332;28;20094;-85
2022/05/13 13:03:45;;;;;;;5.20;1.60;;;17.80;69.30;;;;;;4985666;28;20048;-86
2022/05/13 13:06:17;;;;;;;4.70;1.52;;;17.90;69.80;;;;;;4982443;28;20110;-86
2022/05/13 13:08:48;;;;;;;9.23;2.35;;;18.10;69.60;;;;;;4957614;28;20062;-86
2022/05/13 13:11:16;;;;;;;;;;;18.20;68.80;;;;;;4971970;28;20051;-87
2022/05/13 13:14:02;;;;;;;7.05;1.90;;;18.20;68.20;;;;;;4971928;28;19980;-86
2022/05/13 13:16:36;;;;;;;7.53;2.20;;;18.20;68.30;;;;;;4972389;28;20047;-86
2022/05/13 13:19:11;;;;;;;6.57;2.15;;;18.20;68.80;;;;;;4987843;28;20055;-85
2022/05/13 13:21:37;;;;;;;6.03;1.90;;;18.20;68.30;;;;;;4940201;29;20384;-87
2022/05/13 13:24:07;;;;;;;8.32;2.00;;;18.10;69.40;;;;;;4971324;28;20039;-86
2022/05/13 13:26:35;;;;;;;10.68;2.03;;;18.20;69.40;;;;;;4955528;29;20383;-88
2022/05/13 13:29:00;;;;;;;8.65;1.92;;;18.10;69.20;;;;;;4955199;29;20111;-87
2022/05/13 13:31:28;;;;;;;10.23;2.17;;;18.10;69.30;;;;;;4986797;28;20079;-84